Decoded Metar for KIMT (IRON MOUNTAIN in MI, USA) (IATA:IMT) | Meteo·Mobile Aviation Weather
aviador You're here:

KIMT Decoded Metar

IRON MOUNTAIN in MI, USA
Report Time2018-09-21 08:54:00
UTC Time2018-09-21 09:34:02
Flight Rules mvfr MVFR
Wind190° at 09 kt
W.Decomp.*RWY 19: 9.0 kt HW 0.3 kt RCW
RWY 13: 4.2 kt HW 7.9 kt RCW
W.Rank190° ranks 17
Current wind is above 190° avg. (7.9)
Visibility9999 m
Phenomena:N/A
Clouds:Few 015 Hf
Scattered 020 Hf
Broken 027 Hf
Expected CloudBase > 400 ft AGL from Temp-Dew spread
Ceiling2,700 ft
Temp19°C (ISA +6)
Dew Point18°C (94% RH)
AAT18.6°C
QNH998 hPa
Density Alt2,667 ft
Elevation1,145 ft
Report Wrong Elevation
Raw Report
KIMT 210854Z AUTO 19009KT 10SM FEW015 SCT020 BKN027 19/18 A2947
RMK AO2 SLP979 60000 T01940183 58019=

Extra information for KIMT:More info

Metar Taf Metar & Taf Last 4 Metars F.Rules Stats Wind Profile Meteogram Temp Stats Airport Information Weather charts Add Link Nearby VenuesMetar ALERT Operation Metar Decoded Social comments

AIRNAV info for KIMT